sensor_id;sensor_type;location;lat;lon;timestamp;pressure;altitude;pressure_sealevel;temperature;humidity
59289;BME280;45056;47.602;9.886;2022-09-29T00:01:11;91493.41;;;8.63;68.72
59289;BME280;45056;47.602;9.886;2022-09-29T00:03:41;91482.56;;;8.63;68.72
59289;BME280;45056;47.602;9.886;2022-09-29T00:06:12;91483.00;;;8.62;68.70
59289;BME280;45056;47.602;9.886;2022-09-29T00:08:41;91482.28;;;8.61;68.49
59289;BME280;45056;47.602;9.886;2022-09-29T00:11:14;91488.44;;;8.62;68.54
59289;BME280;45056;47.602;9.886;2022-09-29T00:13:45;91495.34;;;8.63;68.53
59289;BME280;45056;47.602;9.886;2022-09-29T00:16:15;91486.75;;;8.64;68.55
59289;BME280;45056;47.602;9.886;2022-09-29T00:18:43;91480.88;;;8.66;68.70
59289;BME280;45056;47.602;9.886;2022-09-29T00:21:14;91482.38;;;8.67;68.69
59289;BME280;45056;47.602;9.886;2022-09-29T00:23:46;91475.00;;;8.68;68.64
59289;BME280;45056;47.602;9.886;2022-09-29T00:26:18;91475.72;;;8.68;68.76
59289;BME280;45056;47.602;9.886;2022-09-29T00:28:51;91474.50;;;8.69;68.82
59289;BME280;45056;47.602;9.886;2022-09-29T00:31:23;91484.13;;;8.70;68.81
59289;BME280;45056;47.602;9.886;2022-09-29T00:33:52;91479.47;;;8.71;68.91
59289;BME280;45056;47.602;9.886;2022-09-29T00:36:22;91489.13;;;8.72;68.87
59289;BME280;45056;47.602;9.886;2022-09-29T00:38:51;91482.19;;;8.71;68.99
59289;BME280;45056;47.602;9.886;2022-09-29T00:41:23;91478.72;;;8.70;68.82
59289;BME280;45056;47.602;9.886;2022-09-29T00:43:56;91484.91;;;8.71;68.66
59289;BME280;45056;47.602;9.886;2022-09-29T00:46:35;91484.13;;;8.70;68.53
59289;BME280;45056;47.602;9.886;2022-09-29T00:49:19;91480.97;;;8.72;68.42
59289;BME280;45056;47.602;9.886;2022-09-29T00:51:58;91480.22;;;8.71;68.39
59289;BME280;45056;47.602;9.886;2022-09-29T00:54:35;91478.72;;;8.70;68.46
59289;BME280;45056;47.602;9.886;2022-09-29T00:57:11;91468.63;;;8.71;68.75
59289;BME280;45056;47.602;9.886;2022-09-29T00:59:48;91469.38;;;8.71;68.91
59289;BME280;45056;47.602;9.886;2022-09-29T01:02:23;91459.72;;;8.70;69.02
59289;BME280;45056;47.602;9.886;2022-09-29T01:04:54;91452.38;;;8.71;69.17
59289;BME280;45056;47.602;9.886;2022-09-29T01:07:24;91452.81;;;8.69;69.16
59289;BME280;45056;47.602;9.886;2022-09-29T01:09:56;91448.16;;;8.70;69.12
59289;BME280;45056;47.602;9.886;2022-09-29T01:12:26;91448.59;;;8.68;69.02
59289;BME280;45056;47.602;9.886;2022-09-29T01:14:55;91451.81;;;8.66;69.10
59289;BME280;45056;47.602;9.886;2022-09-29T01:17:24;91450.31;;;8.65;69.02
59289;BME280;45056;47.602;9.886;2022-09-29T01:20:04;91448.03;;;8.64;69.27
59289;BME280;45056;47.602;9.886;2022-09-29T01:22:57;91454.41;;;8.61;69.15
59289;BME280;45056;47.602;9.886;2022-09-29T01:26:13;91451.41;;;8.59;69.29
59289;BME280;45056;47.602;9.886;2022-09-29T01:29:29;91438.78;;;8.56;69.32
59289;BME280;45056;47.602;9.886;2022-09-29T01:32:21;91433.53;;;8.52;69.40
59289;BME280;45056;47.602;9.886;2022-09-29T01:35:08;91429.81;;;8.49;69.73
59289;BME280;45056;47.602;9.886;2022-09-29T01:37:55;91433.44;;;8.46;69.99
59289;BME280;45056;47.602;9.886;2022-09-29T01:40:43;91437.97;;;8.40;70.14
59289;BME280;45056;47.602;9.886;2022-09-29T01:43:21;91436.19;;;8.37;70.42
59289;BME280;45056;47.602;9.886;2022-09-29T01:46:00;91431.53;;;8.37;70.65
59289;BME280;45056;47.602;9.886;2022-09-29T01:48:37;91425.06;;;8.35;70.73
59289;BME280;45056;47.602;9.886;2022-09-29T01:51:16;91435.63;;;8.33;70.82
59289;BME280;45056;47.602;9.886;2022-09-29T01:53:51;91424.22;;;8.29;70.76
59289;BME280;45056;47.602;9.886;2022-09-29T01:56:27;91431.78;;;8.25;70.72
59289;BME280;45056;47.602;9.886;2022-09-29T01:59:09;91424.84;;;8.23;70.83
59289;BME280;45056;47.602;9.886;2022-09-29T02:01:48;91424.38;;;8.25;70.75
59289;BME280;45056;47.602;9.886;2022-09-29T02:04:24;91434.00;;;8.26;70.70
59289;BME280;45056;47.602;9.886;2022-09-29T02:07:02;91430.13;;;8.27;70.84
59289;BME280;45056;47.602;9.886;2022-09-29T02:09:39;91426.94;;;8.29;70.62
59289;BME280;45056;47.602;9.886;2022-09-29T02:12:15;91435.06;;;8.29;70.71
59289;BME280;45056;47.602;9.886;2022-09-29T02:14:51;91423.00;;;8.30;70.76
59289;BME280;45056;47.602;9.886;2022-09-29T02:17:25;91414.13;;;8.29;70.64
59289;BME280;45056;47.602;9.886;2022-09-29T02:19:59;91400.31;;;8.27;70.60
59289;BME280;45056;47.602;9.886;2022-09-29T02:22:27;91395.78;;;8.24;70.71
59289;BME280;45056;47.602;9.886;2022-09-29T02:24:58;91404.84;;;8.21;70.88
59289;BME280;45056;47.602;9.886;2022-09-29T02:27:27;91407.56;;;8.21;70.88
59289;BME280;45056;47.602;9.886;2022-09-29T02:29:56;91415.69;;;8.21;70.86
59289;BME280;45056;47.602;9.886;2022-09-29T02:32:25;91414.47;;;8.22;70.93
59289;BME280;45056;47.602;9.886;2022-09-29T02:34:56;91420.66;;;8.22;70.70
59289;BME280;45056;47.602;9.886;2022-09-29T02:37:43;91413.25;;;8.23;70.76
59289;BME280;45056;47.602;9.886;2022-09-29T02:40:40;91410.56;;;8.23;70.70
59289;BME280;45056;47.602;9.886;2022-09-29T02:43:25;91412.81;;;8.25;70.79
59289;BME280;45056;47.602;9.886;2022-09-29T02:46:26;91406.47;;;8.28;70.57
59289;BME280;45056;47.602;9.886;2022-09-29T02:49:27;91410.22;;;8.30;70.63
59289;BME280;45056;47.602;9.886;2022-09-29T02:52:18;91417.88;;;8.32;70.56
59289;BME280;45056;47.602;9.886;2022-09-29T02:55:04;91413.50;;;8.34;70.74
59289;BME280;45056;47.602;9.886;2022-09-29T02:57:49;91412.28;;;8.35;70.58
59289;BME280;45056;47.602;9.886;2022-09-29T03:00:20;91412.56;;;8.37;70.62
59289;BME280;45056;47.602;9.886;2022-09-29T03:02:49;91403.22;;;8.38;70.52
59289;BME280;45056;47.602;9.886;2022-09-29T03:05:19;91410.13;;;8.40;70.56
59289;BME280;45056;47.602;9.886;2022-09-29T03:07:49;91406.94;;;8.41;70.49
59289;BME280;45056;47.602;9.886;2022-09-29T03:10:18;91405.00;;;8.42;70.57
59289;BME280;45056;47.602;9.886;2022-09-29T03:12:46;91401.84;;;8.43;70.47
59289;BME280;45056;47.602;9.886;2022-09-29T03:15:15;91403.78;;;8.43;70.49
59289;BME280;45056;47.602;9.886;2022-09-29T03:17:43;91400.31;;;8.42;70.55
59289;BME280;45056;47.602;9.886;2022-09-29T03:20:11;91403.78;;;8.43;70.71
59289;BME280;45056;47.602;9.886;2022-09-29T03:22:40;91400.78;;;8.41;70.64
59289;BME280;45056;47.602;9.886;2022-09-29T03:25:08;91398.06;;;8.41;70.25
59289;BME280;45056;47.602;9.886;2022-09-29T03:27:42;91399.00;;;8.37;70.67
59289;BME280;45056;47.602;9.886;2022-09-29T03:30:12;91401.44;;;8.35;70.55
59289;BME280;45056;47.602;9.886;2022-09-29T03:32:42;91405.06;;;8.32;70.67
59289;BME280;45056;47.602;9.886;2022-09-29T03:35:10;91405.53;;;8.31;70.88
59289;BME280;45056;47.602;9.886;2022-09-29T03:37:38;91395.16;;;8.29;70.93
59289;BME280;45056;47.602;9.886;2022-09-29T03:40:08;91397.88;;;8.29;70.85
59289;BME280;45056;47.602;9.886;2022-09-29T03:42:37;91397.13;;;8.29;70.75
59289;BME280;45056;47.602;9.886;2022-09-29T03:45:07;91397.88;;;8.29;70.53
59289;BME280;45056;47.602;9.886;2022-09-29T03:47:35;91391.69;;;8.29;70.39
59289;BME280;45056;47.602;9.886;2022-09-29T03:50:04;91392.91;;;8.28;70.48
59289;BME280;45056;47.602;9.886;2022-09-29T03:52:32;91401.31;;;8.30;70.40
59289;BME280;45056;47.602;9.886;2022-09-29T03:55:00;91399.38;;;8.30;70.40
59289;BME280;45056;47.602;9.886;2022-09-29T03:57:28;91400.38;;;8.33;70.53
59289;BME280;45056;47.602;9.886;2022-09-29T03:59:56;91408.06;;;8.34;70.64
59289;BME280;45056;47.602;9.886;2022-09-29T04:02:26;91400.22;;;8.36;70.49
59289;BME280;45056;47.602;9.886;2022-09-29T04:04:54;91393.59;;;8.37;70.58
59289;BME280;45056;47.602;9.886;2022-09-29T04:07:22;91402.44;;;8.38;70.49
59289;BME280;45056;47.602;9.886;2022-09-29T04:09:50;91396.59;;;8.40;70.49
59289;BME280;45056;47.602;9.886;2022-09-29T04:12:18;91395.66;;;8.43;70.39
59289;BME280;45056;47.602;9.886;2022-09-29T04:14:47;91396.41;;;8.43;70.38
59289;BME280;45056;47.602;9.886;2022-09-29T04:17:15;91389.00;;;8.44;70.47
59289;BME280;45056;47.602;9.886;2022-09-29T04:19:44;91392.47;;;8.44;70.41
59289;BME280;45056;47.602;9.886;2022-09-29T04:22:13;91389.78;;;8.44;70.37
59289;BME280;45056;47.602;9.886;2022-09-29T04:24:44;91387.06;;;8.44;70.44
59289;BME280;45056;47.602;9.886;2022-09-29T04:27:13;91385.84;;;8.45;70.17
59289;BME280;45056;47.602;9.886;2022-09-29T04:29:41;91387.97;;;8.41;70.30
59289;BME280;45056;47.602;9.886;2022-09-29T04:32:10;91393.09;;;8.39;70.36
59289;BME280;45056;47.602;9.886;2022-09-29T04:34:38;91394.16;;;8.42;70.47
59289;BME280;45056;47.602;9.886;2022-09-29T04:37:08;91397.16;;;8.44;70.38
59289;BME280;45056;47.602;9.886;2022-09-29T04:39:37;91392.47;;;8.44;70.62
59289;BME280;45056;47.602;9.886;2022-09-29T04:42:06;91385.09;;;8.45;70.16
59289;BME280;45056;47.602;9.886;2022-09-29T04:44:34;91376.50;;;8.46;70.24
59289;BME280;45056;47.602;9.886;2022-09-29T04:47:02;91379.66;;;8.45;69.98
59289;BME280;45056;47.602;9.886;2022-09-29T04:49:30;91389.28;;;8.46;69.92
59289;BME280;45056;47.602;9.886;2022-09-29T04:51:59;91386.59;;;8.46;69.78
59289;BME280;45056;47.602;9.886;2022-09-29T04:54:31;91379.22;;;8.46;69.76
59289;BME280;45056;47.602;9.886;2022-09-29T04:56:59;91396.97;;;8.47;69.74
59289;BME280;45056;47.602;9.886;2022-09-29T04:59:28;91383.41;;;8.47;69.84
59289;BME280;45056;47.602;9.886;2022-09-29T05:01:56;91387.63;;;8.48;69.72
59289;BME280;45056;47.602;9.886;2022-09-29T05:04:24;91376.78;;;8.48;69.67
59289;BME280;45056;47.602;9.886;2022-09-29T05:06:52;91372.88;;;8.49;69.81
59289;BME280;45056;47.602;9.886;2022-09-29T05:09:20;91378.31;;;8.49;69.72
59289;BME280;45056;47.602;9.886;2022-09-29T05:11:50;91387.94;;;8.50;69.76
59289;BME280;45056;47.602;9.886;2022-09-29T05:14:18;91381.75;;;8.50;69.83
59289;BME280;45056;47.602;9.886;2022-09-29T05:16:46;91379.81;;;8.50;69.85
59289;BME280;45056;47.602;9.886;2022-09-29T05:19:14;91380.53;;;8.51;69.92
59289;BME280;45056;47.602;9.886;2022-09-29T05:21:42;91387.44;;;8.52;69.99
59289;BME280;45056;47.602;9.886;2022-09-29T05:24:10;91387.44;;;8.52;69.95
59289;BME280;45056;47.602;9.886;2022-09-29T05:26:38;91384.75;;;8.52;70.07
59289;BME280;45056;47.602;9.886;2022-09-29T05:29:07;91395.59;;;8.52;70.04
59289;BME280;45056;47.602;9.886;2022-09-29T05:31:35;91388.94;;;8.53;70.02
59289;BME280;45056;47.602;9.886;2022-09-29T05:34:03;91388.94;;;8.53;70.12
59289;BME280;45056;47.602;9.886;2022-09-29T05:36:31;91386.72;;;8.51;69.99
59289;BME280;45056;47.602;9.886;2022-09-29T05:38:59;91379.81;;;8.50;69.92
59289;BME280;45056;47.602;9.886;2022-09-29T05:41:27;91392.59;;;8.50;70.04
59289;BME280;45056;47.602;9.886;2022-09-29T05:43:56;91385.22;;;8.50;70.26
59289;BME280;45056;47.602;9.886;2022-09-29T05:46:28;91384.00;;;8.51;70.25
59289;BME280;45056;47.602;9.886;2022-09-29T05:48:56;91391.66;;;8.53;70.33
59289;BME280;45056;47.602;9.886;2022-09-29T05:51:25;91388.00;;;8.56;70.40
59289;BME280;45056;47.602;9.886;2022-09-29T05:53:53;91389.50;;;8.57;70.37
59289;BME280;45056;47.602;9.886;2022-09-29T05:56:23;91387.09;;;8.59;70.40
59289;BME280;45056;47.602;9.886;2022-09-29T05:58:53;91391.59;;;8.62;70.44
59289;BME280;45056;47.602;9.886;2022-09-29T06:01:25;91387.66;;;8.63;70.48
59289;BME280;45056;47.602;9.886;2022-09-29T06:03:55;91392.31;;;8.63;70.52
59289;BME280;45056;47.602;9.886;2022-09-29T06:06:25;91391.88;;;8.64;70.57
59289;BME280;45056;47.602;9.886;2022-09-29T06:08:57;91396.81;;;8.66;70.45
59289;BME280;45056;47.602;9.886;2022-09-29T06:11:28;91395.59;;;8.67;70.54
59289;BME280;45056;47.602;9.886;2022-09-29T06:13:58;91395.13;;;8.69;70.63
59289;BME280;45056;47.602;9.886;2022-09-29T06:16:31;91402.78;;;8.70;70.69
59289;BME280;45056;47.602;9.886;2022-09-29T06:19:00;91399.63;;;8.72;70.63
59289;BME280;45056;47.602;9.886;2022-09-29T06:21:30;91397.66;;;8.72;70.54
59289;BME280;45056;47.602;9.886;2022-09-29T06:24:01;91395.25;;;8.74;70.64
59289;BME280;45056;47.602;9.886;2022-09-29T06:26:29;91398.25;;;8.76;70.48
59289;BME280;45056;47.602;9.886;2022-09-29T06:28:57;91403.19;;;8.78;70.37
59289;BME280;45056;47.602;9.886;2022-09-29T06:31:29;91400.00;;;8.79;70.45
59289;BME280;45056;47.602;9.886;2022-09-29T06:33:59;91404.22;;;8.80;70.33
59289;BME280;45056;47.602;9.886;2022-09-29T06:36:31;91409.16;;;8.82;70.34
59289;BME280;45056;47.602;9.886;2022-09-29T06:39:20;91410.66;;;8.83;70.40
59289;BME280;45056;47.602;9.886;2022-09-29T06:41:48;91411.41;;;8.84;70.41
59289;BME280;45056;47.602;9.886;2022-09-29T06:44:22;91412.44;;;8.86;70.39
59289;BME280;45056;47.602;9.886;2022-09-29T06:46:53;91410.75;;;8.89;70.58
59289;BME280;45056;47.602;9.886;2022-09-29T06:49:23;91416.94;;;8.89;70.69
59289;BME280;45056;47.602;9.886;2022-09-29T06:51:52;91411.81;;;8.91;70.75
59289;BME280;45056;47.602;9.886;2022-09-29T06:54:22;91411.31;;;8.93;70.63
59289;BME280;45056;47.602;9.886;2022-09-29T06:56:52;91412.34;;;8.95;70.54
59289;BME280;45056;47.602;9.886;2022-09-29T06:59:21;91414.31;;;8.95;70.43
59289;BME280;45056;47.602;9.886;2022-09-29T07:01:50;91422.72;;;8.97;70.30
59289;BME280;45056;47.602;9.886;2022-09-29T07:04:20;91424.97;;;8.99;70.28
59289;BME280;45056;47.602;9.886;2022-09-29T07:06:48;91417.56;;;8.99;70.18
59289;BME280;45056;47.602;9.886;2022-09-29T07:09:17;91426.00;;;9.01;70.14
59289;BME280;45056;47.602;9.886;2022-09-29T07:11:49;91420.84;;;9.03;70.08
59289;BME280;45056;47.602;9.886;2022-09-29T07:14:20;91424.59;;;9.06;70.11
59289;BME280;45056;47.602;9.886;2022-09-29T07:16:50;91420.94;;;9.09;70.30
59289;BME280;45056;47.602;9.886;2022-09-29T07:19:20;91423.66;;;9.09;70.36
59289;BME280;45056;47.602;9.886;2022-09-29T07:21:48;91427.13;;;9.09;70.14
59289;BME280;45056;47.602;9.886;2022-09-29T07:24:17;91427.13;;;9.09;70.12
59289;BME280;45056;47.602;9.886;2022-09-29T07:26:45;91429.84;;;9.09;70.02
59289;BME280;45056;47.602;9.886;2022-09-29T07:29:13;91436.75;;;9.11;69.82
59289;BME280;45056;47.602;9.886;2022-09-29T07:31:42;91432.56;;;9.09;69.43
59289;BME280;45056;47.602;9.886;2022-09-29T07:34:10;91434.78;;;9.11;69.90
59289;BME280;45056;47.602;9.886;2022-09-29T07:36:40;91437.78;;;9.13;69.78
59289;BME280;45056;47.602;9.886;2022-09-29T07:39:09;91444.25;;;9.16;69.77
59289;BME280;45056;47.602;9.886;2022-09-29T07:41:37;91445.75;;;9.17;69.81
59289;BME280;45056;47.602;9.886;2022-09-29T07:44:05;91440.59;;;9.19;69.90
59289;BME280;45056;47.602;9.886;2022-09-29T07:46:33;91447.50;;;9.20;69.81
59289;BME280;45056;47.602;9.886;2022-09-29T07:49:01;91449.47;;;9.19;69.66
59289;BME280;45056;47.602;9.886;2022-09-29T07:51:29;91444.03;;;9.19;69.68
59289;BME280;45056;47.602;9.886;2022-09-29T07:54:01;91452.94;;;9.20;69.85
59289;BME280;45056;47.602;9.886;2022-09-29T07:56:30;91453.69;;;9.20;69.83
59289;BME280;45056;47.602;9.886;2022-09-29T07:58:59;91459.13;;;9.20;69.71
59289;BME280;45056;47.602;9.886;2022-09-29T08:01:30;91462.31;;;9.19;69.91
59289;BME280;45056;47.602;9.886;2022-09-29T08:03:58;91450.69;;;9.18;70.01
59289;BME280;45056;47.602;9.886;2022-09-29T08:06:27;91463.97;;;9.16;70.05
59289;BME280;45056;47.602;9.886;2022-09-29T08:08:55;91455.56;;;9.14;70.26
59289;BME280;45056;47.602;9.886;2022-09-29T08:11:25;91460.97;;;9.14;70.16
59289;BME280;45056;47.602;9.886;2022-09-29T08:13:53;91461.47;;;9.13;70.17
59289;BME280;45056;47.602;9.886;2022-09-29T08:16:22;91465.13;;;9.09;70.33
59289;BME280;45056;47.602;9.886;2022-09-29T08:18:50;91462.13;;;9.07;70.34
59289;BME280;45056;47.602;9.886;2022-09-29T08:21:18;91467.56;;;9.07;70.03
59289;BME280;45056;47.602;9.886;2022-09-29T08:23:46;91479.13;;;9.08;70.22
59289;BME280;45056;47.602;9.886;2022-09-29T08:26:16;91482.91;;;9.11;70.22
59289;BME280;45056;47.602;9.886;2022-09-29T08:28:47;91482.41;;;9.12;70.05
59289;BME280;45056;47.602;9.886;2022-09-29T08:31:18;91486.63;;;9.13;70.18
59289;BME280;45056;47.602;9.886;2022-09-29T08:33:50;91484.94;;;9.16;70.26
59289;BME280;45056;47.602;9.886;2022-09-29T08:36:20;91484.00;;;9.19;70.35
59289;BME280;45056;47.602;9.886;2022-09-29T08:38:50;91486.06;;;9.24;70.38
59289;BME280;45056;47.602;9.886;2022-09-29T08:41:33;91494.47;;;9.26;69.98
59289;BME280;45056;47.602;9.886;2022-09-29T08:44:21;91497.47;;;9.28;69.56
59289;BME280;45056;47.602;9.886;2022-09-29T08:46:59;91500.47;;;9.30;69.23
59289;BME280;45056;47.602;9.886;2022-09-29T08:49:37;91504.97;;;9.33;69.13
59289;BME280;45056;47.602;9.886;2022-09-29T08:52:12;91507.22;;;9.35;69.16
59289;BME280;45056;47.602;9.886;2022-09-29T08:54:46;91502.81;;;9.37;68.86
59289;BME280;45056;47.602;9.886;2022-09-29T08:57:18;91505.53;;;9.37;68.69
59289;BME280;45056;47.602;9.886;2022-09-29T08:59:53;91514.69;;;9.40;68.54
59289;BME280;45056;47.602;9.886;2022-09-29T09:02:52;91515.75;;;9.43;68.69
59289;BME280;45056;47.602;9.886;2022-09-29T09:05:50;91512.63;;;9.50;68.62
59289;BME280;45056;47.602;9.886;2022-09-29T09:11:59;91517.41;;;9.55;68.40
59289;BME280;45056;47.602;9.886;2022-09-29T09:15:07;91520.69;;;9.59;68.34
59289;BME280;45056;47.602;9.886;2022-09-29T09:18:02;91513.09;;;9.63;68.36
59289;BME280;45056;47.602;9.886;2022-09-29T09:20:52;91517.13;;;9.68;68.56
59289;BME280;45056;47.602;9.886;2022-09-29T09:23:39;91524.59;;;9.73;68.49
59289;BME280;45056;47.602;9.886;2022-09-29T09:26:32;91534.06;;;9.78;68.16
59289;BME280;45056;47.602;9.886;2022-09-29T09:29:15;91529.63;;;9.80;67.90
59289;BME280;45056;47.602;9.886;2022-09-29T09:31:56;91524.47;;;9.82;68.04
59289;BME280;45056;47.602;9.886;2022-09-29T09:34:37;91527.78;;;9.87;68.07
59289;BME280;45056;47.602;9.886;2022-09-29T09:37:15;91526.81;;;9.90;67.24
59289;BME280;45056;47.602;9.886;2022-09-29T09:39:55;91533.00;;;9.90;67.32
59289;BME280;45056;47.602;9.886;2022-09-29T09:42:33;91530.81;;;9.94;67.53
59289;BME280;45056;47.602;9.886;2022-09-29T09:45:11;91527.94;;;9.98;67.75
59289;BME280;45056;47.602;9.886;2022-09-29T09:47:50;91527.75;;;10.02;67.88
59289;BME280;45056;47.602;9.886;2022-09-29T09:50:25;91525.31;;;10.04;67.96
59289;BME280;45056;47.602;9.886;2022-09-29T09:52:59;91529.03;;;10.06;67.74
59289;BME280;45056;47.602;9.886;2022-09-29T09:55:31;91526.59;;;10.08;67.71
59289;BME280;45056;47.602;9.886;2022-09-29T09:58:27;91527.13;;;10.13;67.77
59289;BME280;45056;47.602;9.886;2022-09-29T10:01:10;91533.88;;;10.17;67.76
59289;BME280;45056;47.602;9.886;2022-09-29T10:03:40;91528.72;;;10.19;68.26
59289;BME280;45056;47.602;9.886;2022-09-29T10:06:08;91533.41;;;10.19;67.88
59289;BME280;45056;47.602;9.886;2022-09-29T10:08:39;91537.63;;;10.20;67.88
59289;BME280;45056;47.602;9.886;2022-09-29T10:11:22;91529.94;;;10.18;67.65
59289;BME280;45056;47.602;9.886;2022-09-29T10:13:58;91538.84;;;10.19;67.38
59289;BME280;45056;47.602;9.886;2022-09-29T10:16:36;91534.16;;;10.19;67.22
59289;BME280;45056;47.602;9.886;2022-09-29T10:19:11;91539.13;;;10.21;67.29
59289;BME280;45056;47.602;9.886;2022-09-29T10:21:42;91538.63;;;10.22;67.46
59289;BME280;45056;47.602;9.886;2022-09-29T10:24:22;91539.66;;;10.25;67.50
59289;BME280;45056;47.602;9.886;2022-09-29T10:26:56;91539.19;;;10.27;67.36
59289;BME280;45056;47.602;9.886;2022-09-29T10:29:33;91540.69;;;10.28;67.47
59289;BME280;45056;47.602;9.886;2022-09-29T10:32:08;91536.47;;;10.27;67.48
59289;BME280;45056;47.602;9.886;2022-09-29T10:34:45;91545.38;;;10.27;67.63
59289;BME280;45056;47.602;9.886;2022-09-29T10:37:23;91550.31;;;10.29;68.09
59289;BME280;45056;47.602;9.886;2022-09-29T10:40:08;91551.56;;;10.28;68.02
59289;BME280;45056;47.602;9.886;2022-09-29T10:42:44;91559.25;;;10.29;68.09
59289;BME280;45056;47.602;9.886;2022-09-29T10:45:16;91565.72;;;10.32;68.13
59289;BME280;45056;47.602;9.886;2022-09-29T10:48:05;91552.84;;;10.32;68.19
59289;BME280;45056;47.602;9.886;2022-09-29T10:50:48;91558.56;;;10.34;68.03
59289;BME280;45056;47.602;9.886;2022-09-29T10:53:25;91563.28;;;10.34;68.19
59289;BME280;45056;47.602;9.886;2022-09-29T10:56:07;91560.06;;;10.35;68.42
59289;BME280;45056;47.602;9.886;2022-09-29T10:58:50;91563.06;;;10.37;68.46
59289;BME280;45056;47.602;9.886;2022-09-29T11:01:22;91563.63;;;10.42;68.30
59289;BME280;45056;47.602;9.886;2022-09-29T11:03:55;91558.75;;;10.46;68.67
59289;BME280;45056;47.602;9.886;2022-09-29T11:06:32;91564.00;;;10.49;68.61
59289;BME280;45056;47.602;9.886;2022-09-29T11:09:05;91569.97;;;10.53;68.48
59289;BME280;45056;47.602;9.886;2022-09-29T11:11:36;91571.75;;;10.57;68.35
59289;BME280;45056;47.602;9.886;2022-09-29T11:14:23;91565.34;;;10.60;67.92
59289;BME280;45056;47.602;9.886;2022-09-29T11:16:54;91563.84;;;10.59;67.52
59289;BME280;45056;47.602;9.886;2022-09-29T11:19:24;91557.88;;;10.54;66.93
59289;BME280;45056;47.602;9.886;2022-09-29T11:25:19;91571.59;;;10.45;66.47
59289;BME280;45056;47.602;9.886;2022-09-29T11:31:19;91571.06;;;10.41;67.04
59289;BME280;45056;47.602;9.886;2022-09-29T11:34:21;91577.22;;;10.42;67.35
59289;BME280;45056;47.602;9.886;2022-09-29T11:37:16;91581.63;;;10.39;67.53
59289;BME280;45056;47.602;9.886;2022-09-29T11:40:02;91580.13;;;10.38;67.37
59289;BME280;45056;47.602;9.886;2022-09-29T11:42:57;91576.38;;;10.35;67.04
59289;BME280;45056;47.602;9.886;2022-09-29T11:45:41;91577.13;;;10.36;67.17
59289;BME280;45056;47.602;9.886;2022-09-29T11:51:46;91575.66;;;10.35;68.02
59289;BME280;45056;47.602;9.886;2022-09-29T11:55:06;91577.88;;;10.36;68.83
59289;BME280;45056;47.602;9.886;2022-09-29T11:58:01;91578.38;;;10.35;68.86
59289;BME280;45056;47.602;9.886;2022-09-29T12:00:54;91575.66;;;10.35;68.50
59289;BME280;45056;47.602;9.886;2022-09-29T12:03:39;91572.16;;;10.34;68.68
59289;BME280;45056;47.602;9.886;2022-09-29T12:06:28;91579.09;;;10.35;69.09
59289;BME280;45056;47.602;9.886;2022-09-29T12:09:35;91582.31;;;10.34;69.58
59289;BME280;45056;47.602;9.886;2022-09-29T12:12:19;91579.59;;;10.34;69.69
59289;BME280;45056;47.602;9.886;2022-09-29T12:15:13;91579.03;;;10.30;69.73
59289;BME280;45056;47.602;9.886;2022-09-29T12:17:53;91575.56;;;10.29;69.79
59289;BME280;45056;47.602;9.886;2022-09-29T12:20:29;91577.06;;;10.30;70.14
59289;BME280;45056;47.602;9.886;2022-09-29T12:23:08;91579.31;;;10.32;70.19
59289;BME280;45056;47.602;9.886;2022-09-29T12:25:47;91576.09;;;10.33;70.33
59289;BME280;45056;47.602;9.886;2022-09-29T12:28:30;91577.59;;;10.34;70.20
59289;BME280;45056;47.602;9.886;2022-09-29T12:31:11;91579.84;;;10.36;70.34
59289;BME280;45056;47.602;9.886;2022-09-29T12:33:51;91573.19;;;10.37;70.19
59289;BME280;45056;47.602;9.886;2022-09-29T12:36:37;91568.50;;;10.37;70.42
59289;BME280;45056;47.602;9.886;2022-09-29T12:39:30;91573.47;;;10.39;70.60
59289;BME280;45056;47.602;9.886;2022-09-29T12:42:25;91570.28;;;10.41;70.57
59289;BME280;45056;47.602;9.886;2022-09-29T12:45:13;91571.78;;;10.42;70.29
59289;BME280;45056;47.602;9.886;2022-09-29T12:48:00;91569.06;;;10.42;70.38
59289;BME280;45056;47.602;9.886;2022-09-29T12:50:41;91567.38;;;10.44;70.49
59289;BME280;45056;47.602;9.886;2022-09-29T12:53:21;91566.44;;;10.47;70.52
59289;BME280;45056;47.602;9.886;2022-09-29T12:56:01;91571.69;;;10.51;70.49
59289;BME280;45056;47.602;9.886;2022-09-29T12:58:40;91566.50;;;10.53;70.61
59289;BME280;45056;47.602;9.886;2022-09-29T13:01:20;91569.28;;;10.59;70.41
59289;BME280;45056;47.602;9.886;2022-09-29T13:07:56;91571.13;;;10.67;70.15
59289;BME280;45056;47.602;9.886;2022-09-29T13:11:10;91559.25;;;10.65;70.02
59289;BME280;45056;47.602;9.886;2022-09-29T13:14:13;91554.53;;;10.65;70.08
59289;BME280;45056;47.602;9.886;2022-09-29T13:20:24;91575.03;;;10.61;70.21
59289;BME280;45056;47.602;9.886;2022-09-29T13:23:23;91568.81;;;10.60;70.18
59289;BME280;45056;47.602;9.886;2022-09-29T13:26:19;91574.28;;;10.60;69.94
59289;BME280;45056;47.602;9.886;2022-09-29T13:29:02;91577.25;;;10.62;69.90
59289;BME280;45056;47.602;9.886;2022-09-29T13:31:40;91576.78;;;10.64;69.76
59289;BME280;45056;47.602;9.886;2022-09-29T13:34:27;91584.69;;;10.62;69.58
59289;BME280;45056;47.602;9.886;2022-09-29T13:37:06;91582.44;;;10.60;68.84
59289;BME280;45056;47.602;9.886;2022-09-29T13:39:42;91580.47;;;10.61;68.85
59289;BME280;45056;47.602;9.886;2022-09-29T13:42:42;91581.97;;;10.62;68.64
59289;BME280;45056;47.602;9.886;2022-09-29T13:45:33;91585.91;;;10.61;68.47
59289;BME280;45056;47.602;9.886;2022-09-29T13:51:42;91590.59;;;10.60;68.32
59289;BME280;45056;47.602;9.886;2022-09-29T13:54:35;91589.38;;;10.61;68.37
59289;BME280;45056;47.602;9.886;2022-09-29T13:57:27;91586.63;;;10.61;68.45
59289;BME280;45056;47.602;9.886;2022-09-29T14:03:18;91591.13;;;10.64;68.47
59289;BME280;45056;47.602;9.886;2022-09-29T14:06:12;91594.13;;;10.66;67.99
59289;BME280;45056;47.602;9.886;2022-09-29T14:08:48;91584.75;;;10.67;67.46
59289;BME280;45056;47.602;9.886;2022-09-29T14:11:28;91596.84;;;10.66;67.07
59289;BME280;45056;47.602;9.886;2022-09-29T14:14:05;91598.81;;;10.66;66.91
59289;BME280;45056;47.602;9.886;2022-09-29T14:16:48;91601.81;;;10.68;66.97
59289;BME280;45056;47.602;9.886;2022-09-29T14:19:35;91598.59;;;10.70;66.76
59289;BME280;45056;47.602;9.886;2022-09-29T14:28:24;91608.34;;;10.76;67.46